Flight Track Log - Related Links

Times and Time Zones

All times are in EDT time to prevent confusion due to time zone crossing. See the SKW6492 flight status page for this flight to view local times or setup timezone preferences in your user account.

Time Position Orientation Groundspeed Altitude Reporting Facility
EDT Latitude Longitude Course Direction KTS MPH feet Rate Location/Type
Thu 10:44:37 PM 39.8667 -104.7667 348° North 197 227 7,200  Level Denver TRACON
Thu 10:45:43 PM 39.9000 -104.8667 294° West 284 327 8,600 1,667 Climbing Denver TRACON
Thu 10:46:00 PM 40.1709 -104.7729 347° North  Level FlightAware Approximate
Thu 10:46:43 PM 39.9667 -104.9333 323° Northwest 303 349 10,700  Level Denver TRACON
Thu 10:47:00 PM 40.2786 -104.8052 347° North  Level FlightAware Approximate
Thu 10:47:43 PM 40.0500 -104.9333 360° North 316 364 12,100  Level Denver TRACON
Thu 10:48:00 PM 40.3860 -104.8398 346° North  Level FlightAware Approximate
Thu 10:48:37 PM 40.1333 -104.9333 360° North 372 428 12,000  Level Denver TRACON
Thu 10:49:00 PM 40.4932 -104.8755 346° North  Level FlightAware Approximate
Thu 10:49:08 PM 40.1922 -104.9314 North 370 426 12,000  Level Denver Center
Thu 10:50:00 PM 40.6011 -104.9074 348° North  Level FlightAware Approximate
Thu 10:50:09 PM 40.2936 -104.9553 350° North 369 425 12,900  Level Denver Center
Thu 10:51:11 PM 40.3931 -104.9986 342° North 349 402 16,000 2,274 Climbing Denver Center
Thu 10:52:13 PM 40.4819 -105.0353 343° North 340 391 17,600 1,403 Climbing Denver Center
Thu 10:53:15 PM 40.5842 -105.0681 346° North 353 406 18,900 1,355 Climbing Denver Center
Thu 10:54:17 PM 40.6706 -105.1322 331° Northwest 345 397 20,400 1,452 Climbing Denver Center
Thu 10:55:19 PM 40.7514 -105.2061 325° Northwest 358 412 21,900 1,452 Climbing Denver Center
Thu 10:56:21 PM 40.8300 -105.2789 325° Northwest 351 404 23,400 1,065 Climbing Denver Center
Thu 10:57:23 PM 40.9103 -105.3517 326° Northwest 348 400 24,100 581 Climbing Denver Center
Thu 10:58:25 PM 40.9958 -105.4281 326° Northwest 363 418 24,600 484 Climbing Denver Center
Thu 10:59:27 PM 41.0867 -105.5125 325° Northwest 382 440 25,100 629 Climbing Denver Center
Thu 11:00:29 PM 41.1883 -105.6061 325° Northwest 393 452 25,900 726 Climbing Denver Center
Thu 11:01:31 PM 41.2772 -105.6872 326° Northwest 400 460 26,600 774 Climbing Denver Center
Thu 11:02:33 PM 41.3797 -105.7800 326° Northwest 400 460 27,500 829 Climbing Denver Center
Thu 11:03:34 PM 41.4675 -105.8600 326° Northwest 399 459 28,300 732 Climbing Denver Center
Thu 11:04:36 PM 41.5689 -105.9547 325° Northwest 398 458 29,000 484 Climbing Denver Center
Thu 11:05:38 PM 41.6586 -106.0367 326° Northwest 403 464 29,300 290 Climbing Denver Center
Thu 11:06:40 PM 41.7506 -106.1222 325° Northwest 415 478 29,600 290 Climbing Denver Center
Thu 11:07:42 PM 41.8564 -106.2214 325° Northwest 417 480 29,900 290 Climbing Denver Center
Thu 11:08:44 PM 41.9500 -106.3097 325° Northwest 423 487 30,200 435 Climbing Denver Center
Thu 11:09:46 PM 42.0583 -106.4103 325° Northwest 423 487 30,800 390 Climbing Denver Center
Thu 11:10:47 PM 42.1475 -106.4978 324° Northwest 417 480 31,000 293 Climbing Denver Center
Thu 11:11:49 PM 42.2594 -106.6025 325° Northwest 427 491 31,400 339 Climbing Denver Center
Thu 11:12:51 PM 42.3506 -106.6908 324° Northwest 429 494 31,700 290 Climbing Denver Center
Thu 11:13:53 PM 42.4439 -106.7797 325° Northwest 429 494 32,000 145 Climbing Denver Center
Thu 11:14:55 PM 42.5550 -106.8864 325° Northwest 433 498 32,000  Level Denver Center
Thu 11:15:56 PM 42.6486 -106.9781 324° Northwest 436 502 32,000  Level Denver Center
Thu 11:16:58 PM 42.7614 -107.0878 324° Northwest 443 510 32,000  Level Denver Center
Thu 11:18:00 PM 42.8592 -107.1833 324° Northwest 450 518 32,000  Level Denver Center
Thu 11:18:47 PM 42.9483 -107.2672 325° Northwest 446 513 32,000  Level Salt Lake Center
Thu 11:19:49 PM 43.0486 -107.3664 324° Northwest 445 512 32,000  Level Salt Lake Center
Thu 11:20:50 PM 43.1497 -107.4683 324° Northwest 451 519 32,000  Level Salt Lake Center
Thu 11:21:52 PM 43.2497 -107.5669 324° Northwest 445 512 32,000  Level Salt Lake Center
Thu 11:22:54 PM 43.3567 -107.6544 329° Northwest 449 517 32,000  Level Salt Lake Center
Thu 11:23:55 PM 43.4628 -107.7442 328° Northwest 447 514 32,000  Level Salt Lake Center
Thu 11:24:57 PM 43.5692 -107.8322 329° Northwest 446 513 32,000 -829 Level Salt Lake Center
Thu 11:25:58 PM 43.6769 -107.9211 329° Northwest 452 520 30,300 -2,488 Descending Salt Lake Center
Thu 11:27:00 PM 43.8128 -108.0364 329° Northwest 473 544 26,900 -3,000 Descending Salt Lake Center
Thu 11:28:02 PM 43.9169 -108.1253 328° Northwest 443 510 24,100 -2,732 Descending Salt Lake Center
Thu 11:29:03 PM 44.0161 -108.2097 329° Northwest 422 486 21,300 -2,585 Descending Salt Lake Center
Thu 11:30:05 PM 44.1122 -108.2914 329° Northwest 407 468 18,800 -2,195 Descending Salt Lake Center
Thu 11:31:06 PM 44.2044 -108.3717 328° Northwest 401 461 16,800 -1,902 Descending Salt Lake Center
Thu 11:32:08 PM 44.2944 -108.4481 329° Northwest 390 449 14,900 -1,902 Descending Salt Lake Center
Thu 11:33:09 PM 44.3897 -108.5292 329° Northwest 391 450 12,900 -1,805 Descending Salt Lake Center
Thu 11:34:11 PM 44.4792 -108.6058 329° Northwest 388 447 11,200 -1,317 Descending Salt Lake Center
Thu 11:35:12 PM 44.5511 -108.6686 328° Northwest 342 394 10,200 -1,073 Descending Salt Lake Center
Thu 11:36:14 PM 44.6267 -108.7336 329° Northwest 293 337 9,000 -927 Descending Salt Lake Center
Thu 11:37:15 PM 44.6392 -108.8064 284° West 241 277 8,300 -639 Descending Salt Lake Center
Thu 11:38:16 PM 44.6114 -108.8658 237° Southwest 203 234 7,700 -634 Descending Salt Lake Center
Thu 11:39:18 PM 44.5836 -108.9158 232° Southwest 181 208 7,000 -732 Descending Salt Lake Center
Thu 11:40:19 PM 44.5575 -108.9600 230° Southwest 163 188 6,200 -683 Descending Salt Lake Center
Thu 11:41:21 PM 44.5317 -109.0053 231° Southwest 154 177 5,600 -581 Descending Salt Lake Center
Thu 11:43:00 PM 44.5167 -109.0167 200° South  Level FlightAware Approximate

Login

Don't have an account? Register now (free) for customized features, flight alerts, and more!